• Join FlightAware (Why Join?)
  • Login
  • US Flag 
07:16PM EDT


 

Airport Tracker/Info


-or-


 

Live Flight TrackerFlight Track Log ✈ SWA494 ✈ 05-Apr-2013 ✈ KHOU - KSAT

Flight Track Log - Related Links

Times and Time Zones

All times are in EDT time to prevent confusion due to time zone crossing. See the SWA494 flight status page for this flight to view local times or setup timezone preferences in your user account.

Time Position Orientation Groundspeed Altitude Reporting Facility
EDT Latitude Longitude Course Direction KTS MPH feet Rate Location/Type
09:29PM 29.6564 -95.2672 10° North 161 185 800  Level Houston Center
09:29PM 29.6728 -95.2639 10° North 155 178 1,700 1,980 Climbing Houston Center
09:30PM 29.6908 -95.2969 302° West 220 253 2,900 1,920 Climbing Houston Center
09:30PM 29.6947 -95.3253 279° West 237 273 3,700 2,760 Climbing Houston Center
09:31PM 29.7008 -95.3847 277° West 285 328 6,000 3,120 Climbing Houston Center
09:31PM 29.7033 -95.4111 276° West 263 303 6,900 3,240 Climbing Houston Center
09:32PM 29.7128 -95.5017 277° West 280 322 10,600 2,760 Climbing Houston Center
09:33PM 29.7228 -95.6047 276° West 317 365 12,600 2,640 Climbing Houston Center
09:34PM 29.7336 -95.7186 276° West 356 410 16,100 3,600 Climbing Houston Center
09:35PM 29.7475 -95.8614 276° West 372 428 20,000 3,480 Climbing Houston Center
09:36PM 29.7594 -95.9842 276° West 385 443 23,200 3,240 Climbing Houston Center
09:37PM 29.7706 -96.0969 277° West 380 437 26,700 2,340 Climbing Houston Center
09:38PM 29.7811 -96.2169 276° West 379 436 28,000 600 Climbing Houston Center
09:39PM 29.7914 -96.3481 275° West 407 468 28,000  Level Houston Center
09:40PM 29.8014 -96.4794 275° West 413 475 28,000  Level Houston Center
09:41PM 29.8108 -96.6092 275° West 409 471 28,000 -660 Level Houston Center
09:42PM 29.8219 -96.7656 275° West 412 474 26,700 -1,140 Descending Houston Center
09:43PM 29.8322 -96.8967 275° West 414 476 25,700 -1,020 Descending Houston Center
09:44PM 29.8414 -97.0247 275° West 407 468 24,700 -1,020 Descending Houston Center
09:45PM 29.8497 -97.1506 274° West 400 460 23,700 -1,020 Descending Houston Center
09:46PM 29.8589 -97.2747 275° West 394 453 22,700 -1,020 Descending Houston Center
09:47PM 29.8678 -97.3992 275° West 393 452 21,700 -1,020 Descending Houston Center
09:48PM 29.8753 -97.5239 274° West 391 450 20,700 -1,920 Descending Houston Center
09:49PM 29.8822 -97.6250 275° West 385 443 18,500 -3,000 Descending Houston Center
09:49PM 29.8847 -97.6636 274° West 381 438 17,700 -3,000 Descending Houston Center
09:50PM 29.8928 -97.7889 274° West 370 426 14,500 -3,000 Descending Houston Center
09:51PM 29.8944 -97.8164 274° West 366 421 13,800 -1,740 Descending Houston Center
09:51PM 29.8864 -97.8850 262° West 361 415 13,000 -780 Descending Houston Center
09:52PM 29.8436 -97.9892 245° Southwest 360 414 12,600 -1,320 Descending Houston Center
09:53PM 29.8006 -98.0883 243° Southwest 349 402 10,400 -1,560 Descending Houston Center
09:54PM 29.7664 -98.1722 245° Southwest 308 354 9,700 -900 Descending Houston Center
09:55PM 29.7556 -98.1972 243° Southwest 297 342 9,400 -1,500 Descending Houston Center
09:55PM 29.7325 -98.2581 246° West 265 305 8,200 -1,620 Descending Houston Center
09:56PM 29.7272 -98.2778 253° West 274 315 7,800 -1,080 Descending Houston Center
09:56PM 29.7156 -98.3469 259° West 254 292 7,000 -1,260 Descending Houston Center
09:57PM 29.7011 -98.4183 257° West 230 265 5,500 -1,860 Descending Houston Center
09:59PM 29.6742 -98.5053 250° West 224 258 3,000 -1,320 Descending Houston Center
09:59PM 29.6447 -98.5358 222° Southwest 194 223 3,000 -420 Level Houston Center
10:00PM 29.6306 -98.5389 191° South 191 220 2,600 -720 Descending Houston Center
10:01PM 29.5858 -98.5392 180° South 162 186 2,100 -660 Descending Houston Center
10:01PM 29.5675 -98.5161 132° Southeast 129 148 1,500 -720 Descending Houston Center
10:02PM 29.5617 -98.5078 129° Southeast 136 157 1,400 -540 Descending Houston Center
10:03PM 29.5369 -98.4764 132° Southeast 131 151 800 -600 Descending Houston Center